createdAt,value
2019-05-23T00:00:54.571Z,6.20
2019-05-23T00:03:50.279Z,5.08
2019-05-23T00:06:41.695Z,5.67
2019-05-23T00:09:30.102Z,7.45
2019-05-23T00:12:09.880Z,6.30
2019-05-23T00:14:52.395Z,7.08
2019-05-23T00:17:23.851Z,5.80
2019-05-23T00:19:53.742Z,4.87
2019-05-23T00:22:23.106Z,5.72
2019-05-23T00:24:52.789Z,5.28
2019-05-23T00:27:24.881Z,3.57
2019-05-23T00:32:28.372Z,7.60
2019-05-23T00:34:59.281Z,7.72
2019-05-23T00:37:30.168Z,7.00
2019-05-23T00:39:59.882Z,5.80
2019-05-23T00:42:31.637Z,9.65
2019-05-23T00:45:02.640Z,8.08
2019-05-23T00:47:33.045Z,7.70
2019-05-23T00:50:06.235Z,6.47
2019-05-23T00:52:36.063Z,5.60
2019-05-23T00:55:06.426Z,6.20
2019-05-23T00:57:37.599Z,6.53
2019-05-23T01:00:11.060Z,6.03
2019-05-23T01:02:43.005Z,6.35
2019-05-23T01:05:12.874Z,9.67
2019-05-23T01:07:45.376Z,7.75
2019-05-23T01:10:16.286Z,7.30
2019-05-23T01:12:46.479Z,6.20
2019-05-23T01:15:18.699Z,9.25
2019-05-23T01:17:49.984Z,5.10
2019-05-23T01:20:21.355Z,9.70
2019-05-23T01:25:21.242Z,4.90
2019-05-23T01:27:51.229Z,6.30
2019-05-23T01:30:25.412Z,5.33
2019-05-23T01:32:57.275Z,10.28
2019-05-23T01:35:27.791Z,6.50
2019-05-23T01:37:58.224Z,5.55
2019-05-23T01:40:27.654Z,7.35
2019-05-23T01:42:58.400Z,10.60
2019-05-23T01:45:27.764Z,7.80
2019-05-23T01:47:57.895Z,5.60
2019-05-23T01:50:27.684Z,4.12
2019-05-23T01:52:57.841Z,6.67
2019-05-23T01:55:27.350Z,8.60
2019-05-23T01:57:57.169Z,5.95
2019-05-23T02:00:27.911Z,5.95
2019-05-23T02:02:59.292Z,5.10
2019-05-23T02:05:28.695Z,6.70
2019-05-23T02:07:58.130Z,5.37
2019-05-23T02:10:28.541Z,5.55
2019-05-23T02:12:58.530Z,6.95
2019-05-23T02:15:28.440Z,8.55
2019-05-23T02:17:58.260Z,6.65
2019-05-23T02:20:29.268Z,6.28
2019-05-23T02:22:58.698Z,6.53
2019-05-23T02:25:29.139Z,10.05
2019-05-23T02:27:59.592Z,6.53
2019-05-23T02:30:36.619Z,15.18
2019-05-23T02:33:02.634Z,7.20
2019-05-23T02:35:32.143Z,14.75
2019-05-23T02:38:12.196Z,14.90
2019-05-23T02:40:46.546Z,17.52
2019-05-23T02:43:17.828Z,14.07
2019-05-23T02:45:52.999Z,12.33
2019-05-23T02:48:23.729Z,11.35
2019-05-23T02:50:59.910Z,12.30
2019-05-23T02:53:33.808Z,14.07
2019-05-23T02:56:08.030Z,15.28
2019-05-23T02:59:04.532Z,15.15
2019-05-23T03:01:55.260Z,12.47
2019-05-23T03:04:26.348Z,16.40
2019-05-23T03:06:56.383Z,10.40
2019-05-23T03:09:29.713Z,13.88
2019-05-23T03:12:01.622Z,13.35
2019-05-23T03:14:34.224Z,12.68
2019-05-23T03:17:05.379Z,11.33
2019-05-23T03:19:44.818Z,11.70
2019-05-23T03:22:38.446Z,11.08
2019-05-23T03:25:35.548Z,11.97
2019-05-23T03:28:09.631Z,15.80
2019-05-23T03:30:40.714Z,12.47
2019-05-23T03:33:11.018Z,11.03
2019-05-23T03:35:54.152Z,11.08
2019-05-23T03:38:23.497Z,16.23
2019-05-23T03:40:52.882Z,9.13
2019-05-23T03:43:24.372Z,11.75
2019-05-23T03:45:58.182Z,14.58
2019-05-23T03:48:28.235Z,12.20
2019-05-23T03:50:57.985Z,14.28
2019-05-23T03:53:28.653Z,13.08
2019-05-23T03:55:59.437Z,13.80
2019-05-23T03:58:29.866Z,13.78
2019-05-23T04:01:01.120Z,11.12
2019-05-23T04:03:30.602Z,9.70
2019-05-23T04:06:02.176Z,16.05
2019-05-23T04:08:32.062Z,8.88
2019-05-23T04:11:01.795Z,15.08
2019-05-23T04:13:31.261Z,14.07
2019-05-23T04:16:00.701Z,14.13
2019-05-23T04:18:32.398Z,13.32
2019-05-23T04:21:01.871Z,13.22
2019-05-23T04:23:32.927Z,11.73
2019-05-23T04:26:02.442Z,11.33
2019-05-23T04:28:31.952Z,15.00
2019-05-23T04:31:01.708Z,12.63
2019-05-23T04:33:32.348Z,13.95
2019-05-23T04:36:01.791Z,14.40
2019-05-23T04:38:36.124Z,15.65
2019-05-23T04:41:02.392Z,18.07
2019-05-23T04:43:31.829Z,14.93
2019-05-23T04:46:05.243Z,12.45
2019-05-23T04:48:35.348Z,11.78
2019-05-23T04:51:05.931Z,15.64
2019-05-23T04:53:35.725Z,12.05
2019-05-23T04:56:07.331Z,13.38
2019-05-23T04:58:37.628Z,12.70
2019-05-23T05:01:07.490Z,10.78
2019-05-23T05:03:39.013Z,9.03
2019-05-23T05:06:08.733Z,11.93
2019-05-23T05:08:38.097Z,14.30
2019-05-23T05:11:07.676Z,9.68
2019-05-23T05:13:37.633Z,13.08
2019-05-23T05:16:09.944Z,12.65
2019-05-23T05:18:42.518Z,12.85
2019-05-23T05:21:11.946Z,12.73
2019-05-23T05:23:41.551Z,11.65
2019-05-23T05:26:16.792Z,9.27
2019-05-23T05:28:47.617Z,12.80
2019-05-23T05:31:17.229Z,9.87
2019-05-23T05:33:46.744Z,11.73
2019-05-23T05:36:16.245Z,11.63
2019-05-23T05:38:47.817Z,13.15
2019-05-23T05:41:17.261Z,9.63
2019-05-23T05:43:46.800Z,10.08
2019-05-23T05:46:16.439Z,8.40
2019-05-23T05:48:46.104Z,10.10
2019-05-23T05:51:15.738Z,10.93
2019-05-23T05:53:45.348Z,11.38
2019-05-23T05:56:14.810Z,10.77
2019-05-23T05:58:44.356Z,12.03
2019-05-23T06:01:30.908Z,10.55
2019-05-23T06:03:46.608Z,9.10
2019-05-23T06:06:20.685Z,15.28
2019-05-23T06:08:51.747Z,10.98
2019-05-23T06:11:22.944Z,10.13
2019-05-23T06:13:52.387Z,9.35
2019-05-23T06:16:33.138Z,12.40
2019-05-23T06:19:02.884Z,17.10
2019-05-23T06:21:32.991Z,9.58
2019-05-23T06:24:02.766Z,13.20
2019-05-23T06:26:32.267Z,11.33
2019-05-23T06:29:01.708Z,13.13
2019-05-23T06:31:31.950Z,11.10
2019-05-23T06:34:01.405Z,10.38
2019-05-23T06:36:31.412Z,9.28
2019-05-23T06:39:00.774Z,12.30
2019-05-23T06:41:30.282Z,13.25
2019-05-23T06:43:59.736Z,11.63
2019-05-23T06:46:29.265Z,10.55
2019-05-23T06:48:58.738Z,9.38
2019-05-23T06:51:28.294Z,7.35
2019-05-23T06:53:57.641Z,11.60
2019-05-23T06:56:27.473Z,10.68
2019-05-23T06:58:56.878Z,14.00
2019-05-23T07:01:26.516Z,8.90
2019-05-23T07:03:57.107Z,8.93
2019-05-23T07:06:26.555Z,11.00
2019-05-23T07:08:58.556Z,13.08
2019-05-23T07:11:28.698Z,7.87
2019-05-23T07:13:58.160Z,6.40
2019-05-23T07:16:27.943Z,7.92
2019-05-23T07:18:59.330Z,12.80
2019-05-23T07:21:30.193Z,7.65
2019-05-23T07:26:28.658Z,5.83
2019-05-23T07:28:58.467Z,5.20
2019-05-23T07:31:27.844Z,2.90
2019-05-23T07:34:02.322Z,3.83
2019-05-23T07:36:29.517Z,8.30
2019-05-23T07:39:01.771Z,4.67
2019-05-23T07:41:31.630Z,3.30
2019-05-23T07:44:01.633Z,3.03
2019-05-23T07:46:31.058Z,3.67
2019-05-23T07:49:00.870Z,5.42
2019-05-23T07:51:30.228Z,11.78
2019-05-23T07:54:10.154Z,8.85
2019-05-23T07:56:41.200Z,6.80
2019-05-23T07:59:11.126Z,6.00
2019-05-23T08:01:44.118Z,7.00
2019-05-23T08:04:21.438Z,7.97
2019-05-23T08:06:48.729Z,7.53
2019-05-23T08:09:18.540Z,11.85
2019-05-23T08:11:48.643Z,6.37
2019-05-23T08:14:17.983Z,6.33
2019-05-23T08:16:47.521Z,7.85
2019-05-23T08:19:19.604Z,5.80
2019-05-23T08:21:49.433Z,7.33
2019-05-23T08:24:19.328Z,4.33
2019-05-23T08:26:49.629Z,12.15
2019-05-23T08:29:26.937Z,8.50
2019-05-23T08:31:51.243Z,6.90
2019-05-23T08:34:39.501Z,6.63
2019-05-23T08:36:52.236Z,6.80
2019-05-23T08:39:22.859Z,6.55
2019-05-23T08:41:52.369Z,6.85
2019-05-23T08:44:21.790Z,4.80
2019-05-23T08:46:51.232Z,7.45
2019-05-23T08:49:20.960Z,9.88
2019-05-23T08:51:50.778Z,7.90
2019-05-23T08:54:20.198Z,4.78
2019-05-23T08:56:51.286Z,8.40
2019-05-23T08:59:20.730Z,4.87
2019-05-23T09:01:50.113Z,6.00
2019-05-23T09:04:21.511Z,5.58
2019-05-23T09:06:50.943Z,7.33
2019-05-23T09:09:29.544Z,4.28
2019-05-23T09:11:52.780Z,3.92
2019-05-23T09:14:22.601Z,4.80
2019-05-23T09:16:52.955Z,7.30
2019-05-23T09:21:57.529Z,4.72
2019-05-23T09:24:21.983Z,4.60
2019-05-23T09:26:52.157Z,5.10
2019-05-23T09:29:21.633Z,5.40
2019-05-23T09:31:51.224Z,4.23
2019-05-23T09:34:21.112Z,7.30
2019-05-23T09:39:20.736Z,5.37
2019-05-23T09:41:50.103Z,3.45
2019-05-23T09:44:19.526Z,4.40
2019-05-23T09:46:50.523Z,3.47
2019-05-23T09:49:19.894Z,6.57
2019-05-23T09:51:51.170Z,10.15
2019-05-23T09:54:21.332Z,3.50
2019-05-23T09:59:19.522Z,3.67
2019-05-23T10:01:49.554Z,4.10
2019-05-23T10:04:18.976Z,2.97
2019-05-23T10:06:48.378Z,4.95
2019-05-23T10:09:17.811Z,4.50
2019-05-23T10:11:47.438Z,1.22
2019-05-23T10:14:18.504Z,1.17
2019-05-23T10:16:47.975Z,6.08
2019-05-23T10:19:18.450Z,1.52
2019-05-23T10:21:47.805Z,0.98
2019-05-23T10:24:17.194Z,4.20
2019-05-23T10:26:46.698Z,4.80
2019-05-23T10:29:16.134Z,1.70
2019-05-23T10:31:48.536Z,1.53
2019-05-23T10:34:18.196Z,2.22
2019-05-23T10:36:47.604Z,2.50
2019-05-23T10:39:19.753Z,1.77
2019-05-23T10:41:49.266Z,1.40
2019-05-23T10:44:18.707Z,2.37
2019-05-23T10:46:48.132Z,1.52
2019-05-23T10:49:17.516Z,5.00
2019-05-23T10:51:46.920Z,4.87
2019-05-23T10:56:46.704Z,3.10
2019-05-23T10:59:16.119Z,5.35
2019-05-23T11:01:45.833Z,3.12
2019-05-23T11:04:15.219Z,2.03
2019-05-23T11:06:44.785Z,1.92
2019-05-23T11:09:14.356Z,2.45
2019-05-23T11:11:46.378Z,1.70
2019-05-23T11:14:16.271Z,4.50
2019-05-23T11:16:45.780Z,1.35
2019-05-23T11:19:15.202Z,1.80
2019-05-23T11:21:44.658Z,2.08
2019-05-23T11:24:14.913Z,3.57
2019-05-23T11:26:45.707Z,2.10
2019-05-23T11:31:45.271Z,3.50
2019-05-23T11:34:14.864Z,1.52
2019-05-23T11:36:47.160Z,2.25
2019-05-23T11:39:18.145Z,3.72
2019-05-23T11:41:47.656Z,2.15
2019-05-23T11:44:17.097Z,2.05
2019-05-23T11:46:46.910Z,1.55
2019-05-23T11:49:18.625Z,1.45
2019-05-23T11:51:48.609Z,5.97
2019-05-23T11:54:18.506Z,2.58
2019-05-23T11:56:48.938Z,2.42
2019-05-23T11:59:18.373Z,1.98
2019-05-23T12:01:49.616Z,1.75
2019-05-23T12:04:20.832Z,2.33
2019-05-23T12:06:56.428Z,1.40
2019-05-23T12:09:26.334Z,2.02
2019-05-23T12:11:58.261Z,4.58
2019-05-23T12:14:27.625Z,2.67
2019-05-23T12:16:57.678Z,3.15
2019-05-23T12:19:27.623Z,2.00
2019-05-23T12:21:58.142Z,2.37
2019-05-23T12:24:27.598Z,2.62
2019-05-23T12:26:57.308Z,2.00
2019-05-23T12:29:26.839Z,2.75
2019-05-23T12:31:57.112Z,3.40
2019-05-23T12:34:26.757Z,2.07
2019-05-23T12:37:17.019Z,4.20
2019-05-23T12:39:27.591Z,4.30
2019-05-23T12:41:57.000Z,4.08
2019-05-23T12:44:26.541Z,3.62
2019-05-23T12:46:56.043Z,4.37
2019-05-23T12:49:27.498Z,3.92
2019-05-23T12:54:27.367Z,3.92
2019-05-23T12:56:57.357Z,3.95
2019-05-23T12:59:27.136Z,3.15
2019-05-23T13:01:58.131Z,4.17
2019-05-23T13:04:29.373Z,4.85
2019-05-23T13:06:58.894Z,2.62
2019-05-23T13:09:28.298Z,6.33
2019-05-23T13:11:58.183Z,3.47
2019-05-23T13:14:27.745Z,3.83
2019-05-23T13:17:01.228Z,3.17
2019-05-23T13:19:30.202Z,4.45
2019-05-23T13:21:59.727Z,4.20
2019-05-23T13:24:29.543Z,4.28
2019-05-23T13:26:58.968Z,3.65
2019-05-23T13:29:28.489Z,4.25
2019-05-23T13:31:58.586Z,6.00
2019-05-23T13:34:27.940Z,3.00
2019-05-23T13:36:57.436Z,2.33
2019-05-23T13:39:27.540Z,1.95
2019-05-23T13:41:57.193Z,2.77
2019-05-23T13:44:33.984Z,3.40
2019-05-23T13:49:26.722Z,3.60
2019-05-23T13:51:56.385Z,5.67
2019-05-23T13:54:26.182Z,2.50
2019-05-23T13:56:56.759Z,3.10
2019-05-23T13:59:26.147Z,5.33
2019-05-23T14:01:55.677Z,3.72
2019-05-23T14:04:25.153Z,2.55
2019-05-23T14:06:54.610Z,3.12
2019-05-23T14:09:25.532Z,2.37
2019-05-23T14:12:19.897Z,2.50
2019-05-23T14:17:11.491Z,1.60
2019-05-23T14:19:42.453Z,1.50
2019-05-23T14:22:11.957Z,1.60
2019-05-23T14:24:41.407Z,1.40
2019-05-23T14:27:29.083Z,2.15
2019-05-23T14:30:05.169Z,3.40
2019-05-23T14:34:59.856Z,2.65
2019-05-23T14:37:30.861Z,1.12
2019-05-23T14:40:02.070Z,2.00
2019-05-23T14:42:36.722Z,1.67
2019-05-23T14:45:09.861Z,2.20
2019-05-23T14:47:41.017Z,3.17
2019-05-23T14:50:21.382Z,1.22
2019-05-23T14:52:55.286Z,3.17
2019-05-23T14:55:25.451Z,2.33
2019-05-23T14:57:55.298Z,3.62
2019-05-23T15:00:26.840Z,3.67
2019-05-23T15:02:56.265Z,3.55
2019-05-23T15:05:26.264Z,1.32
2019-05-23T15:07:55.893Z,4.67
2019-05-23T15:10:25.313Z,2.03
2019-05-23T15:12:54.853Z,1.32
2019-05-23T15:15:24.661Z,1.90
2019-05-23T15:17:54.227Z,4.13
2019-05-23T15:20:23.649Z,3.30
2019-05-23T15:22:53.106Z,1.80
2019-05-23T15:25:22.736Z,2.07
2019-05-23T15:27:52.159Z,1.80
2019-05-23T15:30:22.213Z,2.97
2019-05-23T15:32:51.637Z,3.45
2019-05-23T15:35:21.527Z,4.47
2019-05-23T15:37:50.944Z,3.00
2019-05-23T15:40:20.768Z,2.85
2019-05-23T15:42:50.197Z,5.00
2019-05-23T15:45:19.644Z,2.45
2019-05-23T15:50:21.092Z,3.67
2019-05-23T15:53:00.852Z,5.40
2019-05-23T15:55:31.914Z,2.22
2019-05-23T15:58:08.932Z,1.47
2019-05-23T16:00:46.050Z,1.57
2019-05-23T16:03:34.498Z,3.63
2019-05-23T16:06:08.485Z,2.20
2019-05-23T16:08:40.489Z,3.47
2019-05-23T16:11:17.691Z,1.24
2019-05-23T16:13:47.795Z,2.67
2019-05-23T16:16:17.382Z,1.98
2019-05-23T16:18:48.496Z,0.95
2019-05-23T16:21:18.794Z,4.80
2019-05-23T16:23:48.398Z,3.33
2019-05-23T16:26:18.158Z,1.77
2019-05-23T16:28:47.530Z,2.15
2019-05-23T16:31:17.118Z,2.20
2019-05-23T16:33:46.743Z,2.52
2019-05-23T16:36:19.210Z,2.50
2019-05-23T16:38:55.029Z,1.65
2019-05-23T16:41:23.946Z,3.40
2019-05-23T16:43:53.405Z,3.37
2019-05-23T16:46:22.848Z,3.58
2019-05-23T16:48:52.822Z,0.95
2019-05-23T16:51:22.323Z,1.00
2019-05-23T16:53:51.939Z,1.67
2019-05-23T16:56:22.951Z,1.20
2019-05-23T16:59:10.493Z,2.13
2019-05-23T17:01:57.830Z,0.90
2019-05-23T17:04:35.117Z,2.17
2019-05-23T17:07:06.248Z,2.92
2019-05-23T17:10:06.185Z,1.40
2019-05-23T17:12:34.152Z,2.33
2019-05-23T17:15:11.570Z,1.30
2019-05-23T17:18:02.788Z,1.60
2019-05-23T17:20:31.935Z,1.30
2019-05-23T17:23:17.216Z,1.92
2019-05-23T17:25:54.375Z,4.25
2019-05-23T17:28:25.726Z,4.43
2019-05-23T17:31:02.423Z,15.80
2019-05-23T17:33:32.335Z,4.30
2019-05-23T17:36:02.361Z,1.12
2019-05-23T17:38:31.944Z,0.87
2019-05-23T17:41:01.356Z,1.00
2019-05-23T17:43:30.717Z,1.00
2019-05-23T17:46:01.392Z,2.30
2019-05-23T17:48:32.897Z,1.62
2019-05-23T17:51:02.230Z,1.57
2019-05-23T17:53:31.589Z,1.87
2019-05-23T17:56:01.023Z,1.55
2019-05-23T17:58:30.859Z,2.10
2019-05-23T18:01:03.508Z,2.45
2019-05-23T18:03:33.302Z,3.05
2019-05-23T18:06:04.026Z,2.97
2019-05-23T18:08:35.260Z,3.37
2019-05-23T18:11:06.809Z,1.80
2019-05-23T18:16:06.501Z,2.12
2019-05-23T18:18:35.943Z,1.65
2019-05-23T18:21:08.537Z,2.25
2019-05-23T18:23:38.373Z,2.45
2019-05-23T18:26:07.847Z,3.15
2019-05-23T18:28:37.216Z,2.22
2019-05-23T18:31:11.072Z,3.45
2019-05-23T18:33:40.452Z,1.05
2019-05-23T18:36:10.393Z,2.50
2019-05-23T18:38:42.341Z,2.15
2019-05-23T18:43:42.100Z,2.55
2019-05-23T18:46:13.165Z,10.23
2019-05-23T18:51:11.113Z,7.97
2019-05-23T18:53:41.139Z,5.17
2019-05-23T18:56:10.545Z,3.65
2019-05-23T18:58:39.968Z,9.20
2019-05-23T19:01:13.696Z,1.30
2019-05-23T19:03:44.661Z,2.95
2019-05-23T19:06:14.176Z,1.43
2019-05-23T19:08:43.697Z,0.98
2019-05-23T19:11:20.652Z,2.15
2019-05-23T19:13:46.100Z,5.33
2019-05-23T19:16:15.558Z,2.63
2019-05-23T19:18:45.250Z,0.90
2019-05-23T19:21:20.862Z,0.93
2019-05-23T19:23:50.981Z,1.37
2019-05-23T19:26:21.999Z,2.65
2019-05-23T19:28:51.725Z,0.90
2019-05-23T19:31:21.780Z,4.28
2019-05-23T19:33:51.209Z,1.40
2019-05-23T19:36:20.633Z,1.55
2019-05-23T19:38:50.652Z,4.70
2019-05-23T19:41:34.488Z,7.10
2019-05-23T19:43:51.347Z,3.05
2019-05-23T19:46:20.716Z,2.05
2019-05-23T19:48:50.152Z,4.47
2019-05-23T19:51:20.153Z,2.67
2019-05-23T19:53:49.866Z,4.28
2019-05-23T19:56:19.418Z,7.27
2019-05-23T19:58:48.845Z,13.03
2019-05-23T20:01:18.513Z,16.62
2019-05-23T20:03:47.932Z,13.68
2019-05-23T20:06:20.938Z,5.20
2019-05-23T20:08:50.354Z,6.80
2019-05-23T20:11:22.804Z,3.90
2019-05-23T20:13:52.254Z,2.95
2019-05-23T20:16:23.789Z,4.73
2019-05-23T20:18:53.139Z,3.80
2019-05-23T20:21:24.506Z,2.97
2019-05-23T20:26:22.907Z,6.37
2019-05-23T20:28:52.352Z,1.72
2019-05-23T20:31:23.258Z,3.03
2019-05-23T20:33:53.866Z,5.13
2019-05-23T20:36:23.565Z,3.70
2019-05-23T20:38:52.916Z,3.02
2019-05-23T20:41:23.425Z,3.20
2019-05-23T20:43:52.948Z,3.22
2019-05-23T20:46:23.659Z,4.37
2019-05-23T20:48:53.010Z,2.40
2019-05-23T20:51:25.959Z,3.33
2019-05-23T20:53:55.356Z,3.83
2019-05-23T20:56:24.847Z,4.33
2019-05-23T20:58:54.241Z,6.35
2019-05-23T21:01:28.846Z,9.07
2019-05-23T21:03:58.293Z,5.37
2019-05-23T21:06:27.698Z,8.25
2019-05-23T21:08:57.050Z,3.05
2019-05-23T21:11:26.514Z,3.83
2019-05-23T21:13:57.610Z,5.50
2019-05-23T21:16:27.106Z,7.12
2019-05-23T21:18:56.473Z,3.20
2019-05-23T21:21:25.903Z,6.65
2019-05-23T21:23:57.058Z,4.42
2019-05-23T21:26:26.476Z,7.67
2019-05-23T21:28:55.847Z,3.70
2019-05-23T21:31:28.351Z,4.42
2019-05-23T21:33:57.748Z,3.30
2019-05-23T21:36:27.163Z,4.28
2019-05-23T21:38:56.533Z,3.37
2019-05-23T21:41:27.062Z,2.92
2019-05-23T21:43:58.255Z,3.37
2019-05-23T21:46:27.684Z,9.88
2019-05-23T21:48:57.132Z,4.12
2019-05-23T21:51:26.707Z,3.25
2019-05-23T21:53:56.215Z,4.22
2019-05-23T21:56:27.272Z,4.87
2019-05-23T21:58:59.526Z,3.75
2019-05-23T22:01:30.565Z,3.50
2019-05-23T22:04:11.764Z,3.70
2019-05-23T22:06:42.857Z,3.97
2019-05-23T22:09:14.255Z,6.37
2019-05-23T22:11:43.834Z,4.35
2019-05-23T22:14:13.198Z,3.97
2019-05-23T22:16:42.850Z,6.50
2019-05-23T22:19:16.231Z,4.85
2019-05-23T22:21:45.717Z,8.05
2019-05-23T22:24:15.522Z,4.67
2019-05-23T22:26:44.908Z,5.35
2019-05-23T22:29:14.697Z,6.63
2019-05-23T22:31:44.082Z,3.80
2019-05-23T22:34:15.194Z,13.15
2019-05-23T22:36:44.634Z,11.73
2019-05-23T22:39:14.054Z,11.03
2019-05-23T22:44:15.023Z,6.47
2019-05-23T22:46:46.344Z,9.00
2019-05-23T22:49:17.431Z,5.92
2019-05-23T22:51:46.852Z,5.62
2019-05-23T22:54:16.249Z,5.53
2019-05-23T22:56:45.691Z,6.25
2019-05-23T22:59:15.103Z,7.70
2019-05-23T23:01:44.507Z,7.53
2019-05-23T23:04:13.992Z,4.90
2019-05-23T23:06:43.423Z,8.30
2019-05-23T23:09:14.502Z,4.90
2019-05-23T23:11:43.943Z,6.10
2019-05-23T23:14:16.520Z,5.53
2019-05-23T23:16:49.712Z,8.25
2019-05-23T23:19:19.124Z,6.30
2019-05-23T23:21:48.495Z,4.65
2019-05-23T23:24:17.865Z,7.20
2019-05-23T23:26:47.293Z,5.70
2019-05-23T23:29:17.795Z,7.87
2019-05-23T23:31:47.325Z,5.17
2019-05-23T23:34:16.803Z,8.08
2019-05-23T23:36:46.188Z,6.92
2019-05-23T23:39:16.737Z,6.10
2019-05-23T23:41:46.099Z,9.10
2019-05-23T23:44:17.723Z,7.57
2019-05-23T23:47:05.161Z,13.68
2019-05-23T23:49:52.424Z,8.25
2019-05-23T23:52:39.728Z,9.17
2019-05-23T23:55:27.583Z,13.35
2019-05-23T23:57:59.409Z,8.33
